Time;durP1;ratioP1;P1;durP2;ratioP2;P2;SDS_P1;SDS_P2;PMS_P1;PMS_P2;Temp;Humidity;BMP_temperature;BMP_pressure;BME280_temperature;BME280_humidity;BME280_pressure;Samples;Min_cycle;Max_cycle;Signal;HPM_P1;HPM_P2
2023/06/23 00:00:36;;;;;;;7.77;3.30;;;21.10;99.90;;;;;;4947654;29;20958;-79
2023/06/23 00:03:02;;;;;;;7.15;2.90;;;21.10;99.90;;;;;;4950752;29;20425;-78
2023/06/23 00:05:28;;;;;;;8.68;2.90;;;21.00;99.90;;;;;;4951000;29;20465;-79
2023/06/23 00:07:54;;;;;;;8.40;3.40;;;21.10;99.90;;;;;;4951295;29;20768;-79
2023/06/23 00:10:20;;;;;;;7.43;3.30;;;21.20;99.90;;;;;;4952057;29;20887;-79
2023/06/23 00:12:47;;;;;;;7.18;2.80;;;21.20;99.90;;;;;;4939555;29;20451;-79
2023/06/23 00:15:14;;;;;;;6.72;2.75;;;21.20;73.40;;;;;;4915752;29;20891;-79
2023/06/23 00:17:43;;;;;;;7.40;2.90;;;21.00;99.90;;;;;;4934786;29;20425;-79
2023/06/23 00:20:12;;;;;;;6.90;2.70;;;21.00;99.90;;;;;;4951926;29;20476;-79
2023/06/23 00:22:38;;;;;;;6.67;2.70;;;20.90;99.90;;;;;;4977843;28;20403;-79
2023/06/23 00:25:04;;;;;;;6.43;2.50;;;21.00;99.90;;;;;;4990471;28;20389;-79
2023/06/23 00:27:30;;;;;;;7.50;2.60;;;20.90;99.90;;;;;;4990455;28;20486;-79
2023/06/23 00:29:55;;;;;;;6.47;2.27;;;20.90;99.90;;;;;;4960856;28;21219;-79
2023/06/23 00:32:21;;;;;;;7.20;2.40;;;20.60;99.90;;;;;;4951079;29;20398;-79
2023/06/23 00:34:46;;;;;;;7.40;2.70;;;20.60;99.90;;;;;;4952103;29;20410;-79
2023/06/23 00:37:12;;;;;;;6.87;2.73;;;20.70;99.90;;;;;;4952361;29;20444;-79
2023/06/23 00:39:37;;;;;;;6.30;2.30;;;20.80;99.90;;;;;;4951790;29;20405;-79
2023/06/23 00:42:04;;;;;;;7.23;2.67;;;20.80;99.90;;;;;;4951179;29;20398;-79
2023/06/23 00:44:30;;;;;;;7.30;2.72;;;20.80;99.90;;;;;;4950593;29;20425;-79
2023/06/23 00:46:56;;;;;;;10.07;2.67;;;20.80;99.90;;;;;;4955342;28;20480;-79
2023/06/23 00:49:21;;;;;;;6.80;2.80;;;20.80;99.90;;;;;;4954076;29;20778;-79
2023/06/23 00:51:47;;;;;;;6.87;2.40;;;20.70;99.90;;;;;;4954965;29;20397;-78
2023/06/23 00:54:13;;;;;;;6.03;2.30;;;20.70;99.90;;;;;;4938762;29;20413;-78
2023/06/23 00:56:39;;;;;;;7.70;2.40;;;20.70;99.90;;;;;;4955020;29;20414;-79
2023/06/23 00:59:05;;;;;;;6.13;2.20;;;20.70;99.90;;;;;;4954243;29;20436;-78
2023/06/23 01:01:33;;;;;;;6.40;2.40;;;20.60;99.90;;;;;;4937303;29;20512;-79
2023/06/23 01:04:00;;;;;;;6.68;2.72;;;20.60;1.00;;;;;;4955187;28;20436;-79
2023/06/23 01:06:25;;;;;;;6.40;2.90;;;20.50;1.00;;;;;;4937540;29;20405;-79
2023/06/23 01:08:51;;;;;;;6.70;2.70;;;20.30;1.00;;;;;;4953673;29;20405;-78
2023/06/23 01:11:31;;;;;;;7.53;2.90;;;20.10;1.00;;;;;;4965757;28;20403;-78
2023/06/23 01:14:15;;;;;;;6.55;2.55;;;19.90;1.00;;;;;;4974190;28;20431;-79
2023/06/23 01:16:50;;;;;;;6.35;2.60;;;19.90;1.00;;;;;;4974379;28;20964;-79
2023/06/23 01:19:33;;;;;;;7.25;2.40;;;19.60;1.00;;;;;;4958867;28;20461;-78
2023/06/23 01:22:26;;;;;;;7.30;2.75;;;19.40;1.00;;;;;;4957072;28;20416;-78
2023/06/23 01:25:11;;;;;;;6.70;2.70;;;19.60;3.60;;;;;;4976485;28;20419;-78
2023/06/23 01:27:48;;;;;;;7.63;3.22;;;19.50;2.00;;;;;;4974465;28;20388;-79
2023/06/23 01:30:16;;;;;;;6.60;2.80;;;19.30;9.50;;;;;;4973335;28;20488;-79
2023/06/23 01:32:49;;;;;;;6.97;2.70;;;19.20;37.30;;;;;;4973092;28;20411;-79
2023/06/23 01:35:26;;;;;;;7.20;3.50;;;19.10;22.70;;;;;;4974290;28;20400;-79
2023/06/23 01:37:57;;;;;;;6.28;2.47;;;19.00;5.30;;;;;;4946574;28;20412;-79
2023/06/23 01:40:24;;;;;;;8.02;2.80;;;18.90;1.00;;;;;;4919577;29;20853;-79
2023/06/23 01:42:56;;;;;;;7.70;2.70;;;18.80;1.00;;;;;;4936443;29;20399;-79
2023/06/23 01:45:25;;;;;;;8.90;3.65;;;19.00;1.00;;;;;;4935802;29;20414;-79
2023/06/23 01:47:51;;;;;;;8.77;3.40;;;19.00;1.00;;;;;;4917641;29;20443;-79
2023/06/23 01:50:19;;;;;;;12.57;3.40;;;18.80;1.00;;;;;;4934294;29;20396;-79
2023/06/23 01:52:46;;;;;;;6.90;2.70;;;18.80;1.00;;;;;;4935588;29;20459;-80
2023/06/23 01:55:14;;;;;;;8.25;3.20;;;18.50;1.00;;;;;;4935962;29;20408;-79
2023/06/23 01:57:42;;;;;;;7.60;3.10;;;18.60;1.00;;;;;;4934299;29;20403;-79
2023/06/23 02:00:13;;;;;;;7.78;3.05;;;18.70;1.00;;;;;;4934421;29;20403;-79
2023/06/23 02:02:40;;;;;;;7.32;2.95;;;18.60;1.00;;;;;;4934656;29;20778;-79
2023/06/23 02:05:08;;;;;;;7.28;2.55;;;18.70;1.00;;;;;;4934523;29;20498;-79
2023/06/23 02:07:35;;;;;;;6.20;2.05;;;18.70;1.00;;;;;;4936802;29;20406;-79
2023/06/23 02:10:02;;;;;;;9.50;2.65;;;18.30;11.90;;;;;;4937605;29;20833;-79
2023/06/23 02:12:30;;;;;;;6.60;2.20;;;18.30;35.60;;;;;;4916221;29;20489;-79
2023/06/23 02:14:55;;;;;;;7.00;2.50;;;18.10;67.80;;;;;;4947392;29;20497;-79
2023/06/23 02:17:22;;;;;;;6.53;2.67;;;18.20;81.20;;;;;;4952227;28;20901;-79
2023/06/23 02:19:49;;;;;;;7.60;2.80;;;18.10;50.60;;;;;;4952994;29;20791;-79
2023/06/23 02:22:19;;;;;;;8.80;2.90;;;18.10;77.70;;;;;;4962563;28;20499;-79
2023/06/23 02:24:46;;;;;;;7.25;3.10;;;18.10;79.20;;;;;;4972075;28;20420;-79
2023/06/23 02:27:12;;;;;;;6.60;2.70;;;18.10;68.70;;;;;;4969102;28;20466;-79
2023/06/23 02:29:40;;;;;;;7.20;3.40;;;18.20;44.30;;;;;;4933170;29;20408;-79
2023/06/23 02:32:06;;;;;;;7.93;3.30;;;18.20;47.30;;;;;;4933070;29;20407;-79
2023/06/23 02:34:32;;;;;;;8.40;4.00;;;18.20;42.60;;;;;;4933877;29;20541;-79
2023/06/23 02:37:05;;;;;;;8.60;3.50;;;18.10;36.60;;;;;;4932753;29;20416;-79
2023/06/23 02:39:37;;;;;;;8.45;3.80;;;18.20;37.90;;;;;;4934174;29;20404;-79
2023/06/23 02:42:04;;;;;;;8.10;3.70;;;18.00;39.30;;;;;;4933232;29;20415;-79
2023/06/23 02:44:35;;;;;;;8.82;3.80;;;18.10;36.30;;;;;;4939672;29;20435;-79
2023/06/23 02:47:03;;;;;;;9.00;4.00;;;18.10;42.40;;;;;;4933361;29;20415;-79
2023/06/23 02:49:30;;;;;;;10.18;4.78;;;18.00;39.30;;;;;;4943020;29;20398;-79
2023/06/23 02:51:59;;;;;;;11.75;4.90;;;18.10;39.10;;;;;;4953490;29;20461;-79
2023/06/23 02:54:26;;;;;;;10.48;4.55;;;18.10;25.20;;;;;;4953188;29;20434;-79
2023/06/23 02:56:54;;;;;;;9.98;4.95;;;18.20;24.80;;;;;;4959056;29;20410;-79
2023/06/23 02:59:22;;;;;;;11.43;5.10;;;18.10;19.90;;;;;;4956769;29;20954;-79
2023/06/23 03:01:52;;;;;;;12.50;6.18;;;18.10;20.20;;;;;;4942288;29;20759;-79
2023/06/23 03:04:18;;;;;;;12.20;5.97;;;18.10;21.70;;;;;;4932761;29;20435;-79
2023/06/23 03:06:44;;;;;;;12.60;6.10;;;18.10;27.80;;;;;;4933206;29;20407;-78
2023/06/23 03:09:10;;;;;;;14.57;6.40;;;18.20;17.60;;;;;;4930739;29;20416;-79
2023/06/23 03:11:36;;;;;;;14.60;6.73;;;18.10;13.60;;;;;;4950284;29;20402;-78
2023/06/23 03:14:03;;;;;;;11.55;6.15;;;18.10;14.80;;;;;;4951363;29;20428;-78
2023/06/23 03:16:43;;;;;;;12.80;6.47;;;18.20;1.00;;;;;;4949343;29;20439;-78
2023/06/23 03:19:38;;;;;;;14.13;6.53;;;18.30;1.00;;;;;;4932321;29;20419;-78
2023/06/23 03:22:24;;;;;;;13.15;6.47;;;18.40;1.00;;;;;;4950809;28;20451;-79
2023/06/23 03:24:55;;;;;;;14.00;6.60;;;18.50;1.00;;;;;;4970669;28;20431;-79
2023/06/23 03:27:24;;;;;;;14.52;6.20;;;18.50;1.00;;;;;;4971507;28;20427;-78
2023/06/23 03:30:03;;;;;;;13.13;6.80;;;18.50;1.00;;;;;;4970186;28;20388;-79
2023/06/23 03:32:34;;;;;;;11.93;6.22;;;18.60;1.00;;;;;;4970816;28;20396;-79
2023/06/23 03:35:04;;;;;;;14.55;6.93;;;18.70;1.00;;;;;;4970719;28;20396;-79
2023/06/23 03:37:31;;;;;;;12.77;6.57;;;18.60;1.00;;;;;;4932647;28;20522;-79
2023/06/23 03:40:04;;;;;;;13.63;6.65;;;18.60;1.00;;;;;;4935699;29;20413;-78
2023/06/23 03:42:30;;;;;;;13.52;7.10;;;18.70;1.00;;;;;;4950967;29;20402;-79
2023/06/23 03:45:02;;;;;;;12.88;6.70;;;18.80;1.00;;;;;;4950887;29;20432;-79
2023/06/23 03:47:29;;;;;;;15.20;7.28;;;18.80;1.00;;;;;;4949326;29;20448;-76
2023/06/23 03:49:59;;;;;;;14.40;7.80;;;18.80;1.00;;;;;;4950488;29;20502;-76
2023/06/23 03:52:27;;;;;;;13.00;6.80;;;18.80;1.00;;;;;;4948443;29;20398;-76
2023/06/23 03:54:54;;;;;;;14.70;7.38;;;18.90;1.00;;;;;;4931182;29;20428;-75
2023/06/23 03:57:24;;;;;;;14.93;7.37;;;18.80;1.00;;;;;;4931298;29;20500;-76
2023/06/23 03:59:51;;;;;;;15.55;7.28;;;18.80;1.00;;;;;;4930995;29;20467;-76
2023/06/23 04:02:20;;;;;;;15.57;6.85;;;18.80;1.00;;;;;;4949169;29;20499;-76
2023/06/23 04:04:48;;;;;;;14.13;6.93;;;18.80;1.00;;;;;;4951119;29;20500;-75
2023/06/23 04:07:15;;;;;;;15.13;7.30;;;18.80;1.00;;;;;;4942542;29;20426;-75
2023/06/23 04:09:45;;;;;;;15.98;7.57;;;18.80;1.00;;;;;;4939548;29;20481;-75
2023/06/23 04:12:13;;;;;;;15.57;7.78;;;19.00;1.00;;;;;;4939799;29;20429;-75
2023/06/23 04:14:41;;;;;;;14.35;7.57;;;19.00;1.00;;;;;;4940150;29;20480;-74
2023/06/23 04:17:11;;;;;;;15.82;7.40;;;18.90;1.00;;;;;;4941535;29;20449;-74
2023/06/23 04:19:41;;;;;;;16.08;8.55;;;18.90;1.00;;;;;;4958120;28;21643;-74
2023/06/23 04:22:08;;;;;;;14.80;8.55;;;18.90;1.00;;;;;;4965171;28;20722;-74
2023/06/23 04:24:37;;;;;;;15.43;8.15;;;19.00;1.00;;;;;;4962915;28;20460;-74
2023/06/23 04:27:05;;;;;;;17.77;9.18;;;19.10;1.00;;;;;;4963817;28;20397;-74
2023/06/23 04:29:32;;;;;;;16.90;8.20;;;19.00;1.00;;;;;;4962160;28;20833;-74
2023/06/23 04:31:58;;;;;;;17.60;9.07;;;19.10;1.00;;;;;;4961905;28;20433;-75
2023/06/23 04:34:24;;;;;;;18.02;9.43;;;19.20;1.00;;;;;;4962429;28;20439;-73
2023/06/23 04:37:13;;;;;;;18.83;9.10;;;19.10;1.00;;;;;;4954361;28;20847;-77
2023/06/23 04:39:49;;;;;;;17.35;9.50;;;19.20;1.00;;;;;;4955074;28;20969;-78
2023/06/23 04:42:17;;;;;;;18.30;9.63;;;19.10;1.00;;;;;;4954444;29;21051;-77
2023/06/23 04:44:48;;;;;;;16.42;9.30;;;19.10;1.00;;;;;;4960829;28;20424;-78
2023/06/23 04:47:19;;;;;;;20.73;10.85;;;19.20;1.00;;;;;;4973551;28;20392;-78
2023/06/23 04:49:49;;;;;;;21.10;11.20;;;19.10;1.00;;;;;;4973281;28;20418;-77
2023/06/23 04:52:16;;;;;;;19.23;10.43;;;19.20;1.00;;;;;;4972714;28;20408;-77
2023/06/23 04:54:44;;;;;;;20.23;11.07;;;19.20;1.00;;;;;;4972654;28;20885;-77
2023/06/23 04:57:15;;;;;;;25.33;11.47;;;19.20;1.00;;;;;;4971689;28;20392;-77
2023/06/23 04:59:45;;;;;;;19.35;10.50;;;19.10;1.00;;;;;;4971823;28;20469;-78
2023/06/23 05:02:12;;;;;;;21.13;11.45;;;19.00;1.00;;;;;;4956042;28;20397;-78
2023/06/23 05:04:40;;;;;;;20.42;11.93;;;19.40;1.00;;;;;;4953069;29;20425;-78
2023/06/23 05:07:07;;;;;;;19.10;11.05;;;19.60;99.90;;;;;;4954285;29;20420;-78
2023/06/23 05:09:35;;;;;;;18.58;10.32;;;19.90;99.90;;;;;;4953783;29;20486;-78
2023/06/23 05:12:03;;;;;;;22.23;12.20;;;20.10;99.90;;;;;;4953938;29;20406;-78
2023/06/23 05:14:32;;;;;;;22.20;12.60;;;19.90;99.90;;;;;;4953346;29;20417;-78
2023/06/23 05:16:59;;;;;;;19.00;10.23;;;20.00;99.90;;;;;;4936730;29;20405;-78
2023/06/23 05:19:28;;;;;;;19.80;11.02;;;20.10;1.00;;;;;;4954115;28;20430;-78
2023/06/23 05:21:57;;;;;;;21.63;12.13;;;20.10;1.00;;;;;;4967643;28;20817;-78
2023/06/23 05:24:25;;;;;;;26.55;12.82;;;20.20;1.00;;;;;;4959080;28;20493;-78
2023/06/23 05:26:54;;;;;;;19.87;10.90;;;20.10;1.00;;;;;;4979964;28;20394;-78
2023/06/23 05:29:22;;;;;;;23.98;13.10;;;20.10;1.00;;;;;;4991614;28;20391;-78
2023/06/23 05:31:49;;;;;;;22.83;11.55;;;20.40;1.00;;;;;;4971571;28;20873;-78
2023/06/23 05:34:17;;;;;;;22.45;12.15;;;20.60;1.00;;;;;;4972748;28;20400;-78
2023/06/23 05:36:45;;;;;;;26.00;14.35;;;20.80;1.00;;;;;;4967387;28;20902;-78
2023/06/23 05:39:15;;;;;;;24.27;13.13;;;21.10;1.00;;;;;;4992328;28;20395;-78
2023/06/23 05:41:41;;;;;;;25.50;12.40;;;20.90;99.90;;;;;;4974047;28;20423;-79
2023/06/23 05:44:06;;;;;;;26.33;13.60;;;20.70;99.90;;;;;;4959334;28;20551;-79
2023/06/23 05:46:34;;;;;;;23.67;13.23;;;20.50;1.00;;;;;;4953473;29;20401;-78
2023/06/23 05:49:12;;;;;;;27.15;14.70;;;20.00;99.90;;;;;;4952613;29;20430;-78
2023/06/23 05:51:40;;;;;;;27.83;14.73;;;19.80;1.00;;;;;;4952961;29;20905;-78
2023/06/23 05:54:09;;;;;;;30.70;15.23;;;19.80;26.60;;;;;;4953154;29;20402;-78
2023/06/23 05:56:53;;;;;;;26.95;14.05;;;19.80;34.00;;;;;;4952742;29;20496;-78
2023/06/23 05:59:39;;;;;;;28.40;14.00;;;19.80;1.00;;;;;;4952637;29;20442;-78
2023/06/23 06:02:08;;;;;;;29.05;14.57;;;19.80;1.00;;;;;;4952701;29;20835;-78
2023/06/23 06:04:39;;;;;;;25.92;12.80;;;19.90;1.00;;;;;;4958310;28;20421;-78
2023/06/23 06:07:08;;;;;;;27.23;12.95;;;20.00;1.00;;;;;;4970675;28;20403;-78
2023/06/23 06:09:36;;;;;;;25.00;13.25;;;20.10;99.90;;;;;;4974178;28;20403;-78
2023/06/23 06:12:04;;;;;;;25.90;14.68;;;20.20;99.90;;;;;;4976313;28;20415;-78
2023/06/23 06:14:30;;;;;;;27.00;13.33;;;20.50;1.00;;;;;;4972973;28;20412;-78
2023/06/23 06:16:57;;;;;;;25.10;13.80;;;20.30;1.00;;;;;;4971869;28;20404;-78
2023/06/23 06:19:25;;;;;;;26.27;14.07;;;20.10;99.90;;;;;;4955368;28;20512;-78
2023/06/23 06:21:54;;;;;;;27.33;13.23;;;20.20;99.90;;;;;;4952262;29;20412;-78
2023/06/23 06:24:20;;;;;;;27.20;15.18;;;19.90;1.00;;;;;;4952315;29;20912;-78
2023/06/23 06:26:48;;;;;;;27.15;13.98;;;20.00;99.90;;;;;;4953083;29;20910;-78
2023/06/23 06:29:15;;;;;;;28.45;15.32;;;19.80;99.90;;;;;;4952822;29;20390;-78
2023/06/23 06:31:45;;;;;;;29.65;14.50;;;19.90;1.00;;;;;;4952651;29;20771;-78
2023/06/23 06:34:15;;;;;;;28.85;14.60;;;19.90;1.00;;;;;;4951967;29;20914;-78
2023/06/23 06:36:42;;;;;;;26.75;14.85;;;20.10;99.90;;;;;;4952434;29;20397;-78
2023/06/23 06:39:10;;;;;;;27.70;15.30;;;20.20;99.90;;;;;;4952280;29;20410;-78
2023/06/23 06:41:36;;;;;;;25.80;12.88;;;20.40;73.40;;;;;;4952674;29;20875;-78
2023/06/23 06:44:03;;;;;;;28.25;13.15;;;20.30;87.50;;;;;;4952126;28;20766;-78
2023/06/23 06:46:30;;;;;;;27.10;13.90;;;20.30;1.00;;;;;;4951786;29;20459;-78
2023/06/23 06:48:56;;;;;;;27.33;13.52;;;20.20;44.50;;;;;;4952848;29;20409;-78
2023/06/23 06:51:22;;;;;;;26.95;13.43;;;20.10;99.90;;;;;;4952804;29;20514;-78
2023/06/23 06:53:48;;;;;;;28.45;14.18;;;20.30;99.90;;;;;;4952232;29;20870;-78
2023/06/23 06:56:14;;;;;;;27.00;14.93;;;21.00;99.90;;;;;;4935590;29;20529;-77
2023/06/23 06:58:40;;;;;;;24.58;12.52;;;21.40;99.10;;;;;;4951313;29;20414;-77
2023/06/23 07:01:06;;;;;;;24.35;14.00;;;21.50;1.00;;;;;;4951819;29;20469;-77
2023/06/23 07:03:35;;;;;;;20.98;11.30;;;22.30;99.90;;;;;;4951863;29;20425;-77
2023/06/23 07:06:01;;;;;;;23.63;11.18;;;21.90;1.00;;;;;;4951752;29;20394;-77
2023/06/23 07:08:27;;;;;;;24.17;13.10;;;22.00;1.00;;;;;;4951395;29;20737;-77
2023/06/23 07:10:52;;;;;;;23.13;12.83;;;22.20;1.00;;;;;;4951887;29;20469;-77
2023/06/23 07:13:18;;;;;;;23.73;12.63;;;22.10;1.00;;;;;;4951513;29;20437;-77
2023/06/23 07:15:43;;;;;;;21.37;11.50;;;22.50;99.90;;;;;;4952290;29;21335;-77
2023/06/23 07:18:09;;;;;;;20.97;11.47;;;22.20;99.90;;;;;;4941074;28;20455;-77
2023/06/23 07:20:34;;;;;;;20.40;10.80;;;21.90;99.90;;;;;;4971158;28;20407;-77
2023/06/23 07:23:00;;;;;;;23.80;12.60;;;21.60;1.00;;;;;;4971221;28;20428;-78
2023/06/23 07:25:25;;;;;;;24.37;12.43;;;21.30;99.90;;;;;;4972063;28;20396;-78
2023/06/23 07:27:51;;;;;;;22.30;11.30;;;21.30;99.90;;;;;;4971533;28;20758;-78
2023/06/23 07:30:16;;;;;;;22.03;11.77;;;20.90;1.00;;;;;;4972688;28;20399;-78
2023/06/23 07:32:45;;;;;;;23.47;12.07;;;20.60;1.00;;;;;;4971641;28;20449;-77
2023/06/23 07:35:11;;;;;;;24.23;11.50;;;20.50;1.00;;;;;;4971835;28;20392;-77
2023/06/23 07:37:38;;;;;;;24.17;11.82;;;20.70;99.90;;;;;;4971203;28;20594;-78
2023/06/23 07:40:05;;;;;;;23.40;12.02;;;20.80;1.00;;;;;;4973314;28;20393;-78
2023/06/23 07:42:30;;;;;;;24.45;10.98;;;20.70;24.00;;;;;;4973794;28;20391;-78
2023/06/23 07:44:56;;;;;;;19.65;11.40;;;20.50;60.00;;;;;;4970202;28;20416;-78
2023/06/23 07:47:22;;;;;;;21.70;11.70;;;20.40;99.90;;;;;;4970906;28;20396;-78
2023/06/23 07:49:47;;;;;;;23.90;12.93;;;20.50;99.90;;;;;;4972300;28;20470;-78
2023/06/23 07:52:13;;;;;;;21.37;10.37;;;20.60;99.90;;;;;;4971848;28;20396;-78
2023/06/23 07:54:39;;;;;;;23.53;12.00;;;20.80;99.90;;;;;;4970580;28;20942;-78
2023/06/23 07:57:08;;;;;;;21.45;11.30;;;20.70;99.90;;;;;;4970548;28;20546;-78
2023/06/23 07:59:36;;;;;;;22.88;10.25;;;20.70;99.90;;;;;;4970498;28;20491;-78
2023/06/23 08:02:02;;;;;;;19.37;10.33;;;21.30;99.90;;;;;;4970870;28;20435;-78
2023/06/23 08:04:28;;;;;;;19.00;10.65;;;21.50;99.90;;;;;;4970342;28;20427;-78
2023/06/23 08:06:53;;;;;;;20.55;10.40;;;21.70;1.00;;;;;;4970355;28;20409;-78
2023/06/23 08:09:19;;;;;;;22.63;10.70;;;21.80;99.90;;;;;;4971502;28;20396;-78
2023/06/23 08:11:45;;;;;;;21.17;11.25;;;21.70;1.00;;;;;;4971916;28;20739;-78
2023/06/23 08:14:11;;;;;;;20.98;10.13;;;21.50;1.00;;;;;;4971343;28;20407;-78
2023/06/23 08:16:36;;;;;;;18.45;9.65;;;21.60;1.00;;;;;;4972097;28;20396;-78
2023/06/23 08:19:02;;;;;;;20.08;9.35;;;21.90;99.90;;;;;;4958031;28;20433;-78
2023/06/23 08:21:28;;;;;;;20.30;10.57;;;21.60;1.00;;;;;;4935181;29;20409;-78
2023/06/23 08:23:53;;;;;;;20.00;10.73;;;21.40;25.70;;;;;;4951208;29;20520;-77
2023/06/23 08:26:19;;;;;;;26.97;11.07;;;21.80;1.00;;;;;;4935224;29;20398;-77
2023/06/23 08:28:44;;;;;;;19.85;10.18;;;22.10;99.90;;;;;;4953660;29;20405;-77
2023/06/23 08:31:11;;;;;;;20.35;10.20;;;22.00;99.90;;;;;;4952518;29;20933;-77
2023/06/23 08:33:37;;;;;;;16.70;9.50;;;22.50;99.90;;;;;;4951486;29;20437;-78
2023/06/23 08:36:03;;;;;;;16.35;9.05;;;23.70;1.00;;;;;;4951804;29;20398;-78
2023/06/23 08:38:28;;;;;;;18.02;9.30;;;23.50;1.00;;;;;;4951168;29;20453;-79
2023/06/23 08:40:54;;;;;;;17.85;8.50;;;23.90;1.00;;;;;;4951864;29;20414;-79
2023/06/23 08:43:26;;;;;;;22.25;8.00;;;24.70;1.00;;;;;;4952067;29;20425;-79
2023/06/23 08:45:56;;;;;;;15.40;7.90;;;;;;;;;;4951606;29;20902;-79
2023/06/23 08:48:28;;;;;;;14.48;8.10;;;26.50;99.90;;;;;;4950207;29;20887;-78
2023/06/23 08:50:59;;;;;;;13.00;7.15;;;26.60;99.90;;;;;;4950535;29;20409;-78
2023/06/23 08:53:25;;;;;;;15.40;7.43;;;26.80;99.90;;;;;;4951663;29;20394;-79
2023/06/23 08:55:52;;;;;;;14.47;7.20;;;25.80;99.90;;;;;;4937185;29;20912;-79
2023/06/23 08:58:22;;;;;;;17.08;8.75;;;24.90;99.90;;;;;;4953822;29;20887;-79
2023/06/23 09:00:53;;;;;;;17.20;8.43;;;25.50;99.90;;;;;;4954000;29;20914;-78
2023/06/23 09:03:23;;;;;;;17.80;9.00;;;25.40;99.90;;;;;;4920850;29;20426;-79
2023/06/23 09:05:49;;;;;;;18.57;10.20;;;24.50;99.90;;;;;;4954300;28;20417;-79
2023/06/23 09:08:14;;;;;;;16.45;9.38;;;25.00;99.90;;;;;;4962102;29;20410;-79
2023/06/23 09:10:40;;;;;;;17.75;9.13;;;25.20;99.90;;;;;;4961923;29;20437;-79
2023/06/23 09:13:17;;;;;;;18.38;10.15;;;25.20;99.90;;;;;;4957184;29;20444;-79
2023/06/23 09:15:47;;;;;;;15.80;8.15;;;24.30;99.90;;;;;;4957049;29;20386;-79
2023/06/23 09:18:15;;;;;;;15.30;8.18;;;24.00;99.90;;;;;;4957397;28;20449;-79
2023/06/23 09:20:49;;;;;;;14.32;7.45;;;25.20;99.90;;;;;;4958168;29;20776;-79
2023/06/23 09:23:16;;;;;;;16.73;8.40;;;25.20;99.90;;;;;;4958257;29;20421;-80
2023/06/23 09:25:44;;;;;;;15.53;8.37;;;24.60;99.90;;;;;;4958479;29;20465;-79
2023/06/23 09:28:27;;;;;;;14.50;7.72;;;24.90;99.90;;;;;;4940689;29;21045;-80
2023/06/23 09:31:14;;;;;;;16.80;9.07;;;25.40;99.90;;;;;;4958159;29;20401;-79
2023/06/23 09:33:51;;;;;;;15.10;7.60;;;24.60;99.90;;;;;;4957342;29;20421;-79
2023/06/23 09:36:17;;;;;;;13.70;6.93;;;24.20;99.90;;;;;;4958377;29;20429;-79
2023/06/23 09:38:44;;;;;;;12.95;5.88;;;25.00;99.90;;;;;;4958533;29;20440;-79
2023/06/23 09:41:15;;;;;;;10.73;5.97;;;26.10;99.90;;;;;;4954986;29;20869;-78
2023/06/23 09:43:45;;;;;;;14.48;6.38;;;27.60;99.90;;;;;;4953316;29;20453;-78
2023/06/23 09:46:16;;;;;;;13.80;6.27;;;28.80;99.90;;;;;;4953136;29;20513;-78
2023/06/23 09:48:47;;;;;;;12.23;5.68;;;27.50;99.90;;;;;;4954645;29;20477;-79
2023/06/23 09:51:13;;;;;;;11.32;5.30;;;25.40;99.90;;;;;;4947174;29;20424;-79
2023/06/23 09:53:41;;;;;;;11.35;4.93;;;25.90;99.90;;;;;;4968372;28;20486;-78
2023/06/23 09:56:15;;;;;;;11.18;4.70;;;26.70;99.90;;;;;;4955966;28;20447;-78
2023/06/23 09:58:41;;;;;;;12.25;5.20;;;27.90;99.90;;;;;;4953008;29;20397;-79
2023/06/23 10:01:10;;;;;;;10.47;5.43;;;28.30;99.90;;;;;;4949495;29;20426;-78
2023/06/23 10:04:02;;;;;;;11.55;5.80;;;27.70;99.90;;;;;;4934486;29;20435;-78
2023/06/23 10:06:36;;;;;;;12.75;6.47;;;26.10;99.90;;;;;;4933412;29;20415;-80
2023/06/23 10:09:09;;;;;;;12.40;5.85;;;25.20;99.90;;;;;;4940171;29;20403;-80
2023/06/23 10:11:41;;;;;;;12.70;6.35;;;24.80;99.90;;;;;;4941126;29;20446;-80
2023/06/23 10:14:11;;;;;;;13.00;6.07;;;25.30;99.90;;;;;;4950938;29;20397;-80
2023/06/23 10:16:41;;;;;;;12.63;6.90;;;25.50;99.90;;;;;;4955498;29;20414;-81
2023/06/23 10:19:07;;;;;;;12.50;6.85;;;25.10;99.90;;;;;;4955991;28;20453;-80
2023/06/23 10:21:32;;;;;;;11.77;6.38;;;24.70;99.90;;;;;;4963265;28;20393;-79
2023/06/23 10:24:07;;;;;;;12.73;6.03;;;25.50;99.90;;;;;;4961549;28;20427;-80
2023/06/23 10:26:35;;;;;;;10.98;5.10;;;26.50;99.90;;;;;;4947002;28;20427;-78
2023/06/23 10:29:05;;;;;;;10.98;4.93;;;27.90;99.90;;;;;;4922364;29;20438;-79
2023/06/23 10:31:31;;;;;;;13.63;5.40;;;27.80;99.90;;;;;;4947118;28;20424;-79
2023/06/23 10:34:01;;;;;;;13.63;5.15;;;25.80;99.90;;;;;;4974181;28;20391;-79
2023/06/23 10:36:30;;;;;;;14.20;6.80;;;24.50;99.90;;;;;;4964619;28;20398;-79
2023/06/23 10:38:59;;;;;;;15.00;7.28;;;23.80;99.90;;;;;;4954153;29;20414;-78
2023/06/23 10:41:26;;;;;;;12.50;5.82;;;23.60;99.90;;;;;;4947914;28;20741;-79
2023/06/23 10:43:54;;;;;;;12.55;6.38;;;23.40;99.90;;;;;;4940225;29;20591;-79
2023/06/23 10:46:22;;;;;;;12.48;5.78;;;23.60;99.90;;;;;;4936116;29;21213;-78
2023/06/23 10:48:48;;;;;;;11.10;5.43;;;24.10;99.90;;;;;;4953104;28;20483;-78
2023/06/23 10:51:14;;;;;;;12.90;6.10;;;24.40;99.90;;;;;;4974204;28;20403;-79
2023/06/23 10:53:47;;;;;;;12.23;5.30;;;24.80;99.90;;;;;;4972989;28;20408;-78
2023/06/23 10:56:33;;;;;;;11.07;5.68;;;25.50;99.90;;;;;;4973298;28;20388;-79
2023/06/23 10:58:59;;;;;;;12.13;5.82;;;26.30;99.90;;;;;;4954641;29;20845;-78
2023/06/23 11:01:26;;;;;;;12.40;5.90;;;26.30;99.90;;;;;;4953669;29;20406;-79
2023/06/23 11:03:56;;;;;;;15.00;6.47;;;25.80;99.90;;;;;;4956622;29;20448;-79
2023/06/23 11:06:35;;;;;;;10.73;5.55;;;24.60;99.90;;;;;;4953924;29;20527;-79
2023/06/23 11:09:02;;;;;;;11.00;5.43;;;24.70;99.90;;;;;;4954288;29;20891;-79
2023/06/23 11:11:32;;;;;;;12.27;5.90;;;25.00;99.90;;;;;;4954611;29;20772;-79
2023/06/23 11:13:58;;;;;;;11.65;5.65;;;25.60;99.90;;;;;;4952282;29;20473;-78
2023/06/23 11:16:37;;;;;;;10.30;4.73;;;25.60;99.90;;;;;;4940721;29;20418;-78
2023/06/23 11:19:04;;;;;;;9.77;4.55;;;26.00;99.90;;;;;;4951404;28;20413;-78
2023/06/23 11:21:38;;;;;;;9.77;4.75;;;26.10;99.90;;;;;;4950178;29;20409;-78
2023/06/23 11:24:07;;;;;;;9.63;4.35;;;26.30;99.90;;;;;;4959478;28;20424;-79
2023/06/23 11:26:33;;;;;;;11.38;5.18;;;25.50;99.90;;;;;;4976929;28;20400;-79
2023/06/23 11:28:59;;;;;;;11.93;5.70;;;24.90;99.90;;;;;;4961630;28;21012;-78
2023/06/23 11:31:27;;;;;;;10.13;4.50;;;24.70;99.90;;;;;;4952216;29;20425;-79
2023/06/23 11:34:00;;;;;;;11.73;4.68;;;25.30;99.90;;;;;;4939194;29;20391;-79
2023/06/23 11:36:27;;;;;;;12.30;5.40;;;25.80;99.90;;;;;;4938115;29;20403;-79
2023/06/23 11:38:57;;;;;;;11.23;4.55;;;25.80;99.90;;;;;;4942905;29;20395;-79
2023/06/23 11:41:25;;;;;;;11.98;4.05;;;25.70;99.90;;;;;;4974182;28;20461;-79
2023/06/23 11:43:59;;;;;;;8.98;3.60;;;25.80;99.90;;;;;;4988133;28;20420;-79
2023/06/23 11:46:25;;;;;;;9.77;3.95;;;25.90;99.90;;;;;;4985581;28;20444;-79
2023/06/23 11:48:51;;;;;;;8.93;4.20;;;26.00;99.90;;;;;;4973043;28;20407;-79
2023/06/23 11:51:17;;;;;;;9.20;4.20;;;26.10;99.90;;;;;;4944590;28;20415;-79
2023/06/23 11:53:45;;;;;;;11.82;5.30;;;25.90;99.90;;;;;;4965528;28;20402;-79
2023/06/23 11:56:15;;;;;;;11.38;5.60;;;25.70;99.90;;;;;;4944844;29;20481;-79
2023/06/23 11:58:41;;;;;;;9.40;4.60;;;25.90;99.90;;;;;;4935170;29;20443;-78
2023/06/23 12:01:06;;;;;;;8.93;3.90;;;26.20;99.90;;;;;;4934577;29;20407;-79
2023/06/23 12:03:32;;;;;;;9.00;4.03;;;26.60;99.90;;;;;;4934456;29;20415;-79
2023/06/23 12:06:02;;;;;;;8.48;3.78;;;27.00;99.90;;;;;;4936015;29;20463;-78
2023/06/23 12:08:27;;;;;;;8.80;3.53;;;27.40;99.90;;;;;;4931752;29;20733;-76
2023/06/23 12:10:54;;;;;;;9.40;3.40;;;27.70;99.90;;;;;;4913932;29;20420;-77
2023/06/23 12:13:20;;;;;;;7.38;2.88;;;27.50;99.90;;;;;;4934684;29;20398;-77
2023/06/23 12:15:46;;;;;;;10.15;3.80;;;26.80;99.90;;;;;;4929041;29;20426;-79
2023/06/23 12:18:12;;;;;;;8.20;3.50;;;26.20;99.90;;;;;;4945137;29;20434;-80
2023/06/23 12:20:39;;;;;;;9.55;3.55;;;26.10;99.90;;;;;;4950807;28;20483;-79
2023/06/23 12:23:10;;;;;;;8.30;3.50;;;25.80;99.90;;;;;;4969156;28;20417;-80
2023/06/23 12:25:43;;;;;;;10.43;4.20;;;26.10;99.90;;;;;;4971178;28;20408;-80
2023/06/23 12:28:22;;;;;;;9.93;4.10;;;26.60;99.90;;;;;;4972262;28;20797;-79
2023/06/23 12:30:49;;;;;;;8.93;3.30;;;26.80;99.90;;;;;;4951300;28;20445;-77
2023/06/23 12:33:29;;;;;;;8.27;3.22;;;27.20;99.90;;;;;;4952461;28;20540;-79
2023/06/23 12:36:03;;;;;;;7.88;3.30;;;26.90;99.90;;;;;;4967023;28;20455;-81
2023/06/23 12:38:31;;;;;;;10.30;3.80;;;26.70;99.90;;;;;;4943427;28;20436;-78
2023/06/23 12:41:17;;;;;;;8.52;3.45;;;26.10;99.90;;;;;;4944617;28;20454;-78
2023/06/23 12:43:43;;;;;;;10.38;3.60;;;25.50;99.90;;;;;;4937758;29;20438;-80
2023/06/23 12:46:11;;;;;;;8.88;3.70;;;25.40;99.90;;;;;;4936988;29;20901;-78
2023/06/23 12:48:39;;;;;;;8.90;3.90;;;25.80;99.90;;;;;;4935078;29;20399;-77